• Join FlightAware (Why Join?)
  • Login
  • US Flag 
07:38PM EDT


 

Airport Tracker/Info


-or-


 

Live Flight TrackerFlight Track Log ✈ FFT303 ✈ 13-May-2013 ✈ KMDW - KDEN

Flight Track Log - Related Links

Times and Time Zones

All times are in EDT time to prevent confusion due to time zone crossing. See the FFT303 flight status page for this flight to view local times or setup timezone preferences in your user account.

Time Position Orientation Groundspeed Altitude Reporting Facility
EDT Latitude Longitude Course Direction KTS MPH feet Rate Location/Type
07:51PM 41.8167 -87.7667 265° West 186 214 2,500  Level Chicago TRACON
07:52PM 41.8000 -87.8333 251° West 246 283 4,900 2,820 Climbing Chicago TRACON
07:53PM 41.7833 -87.9333 257° West 252 290 8,300 3,240 Climbing Chicago TRACON
07:54PM 41.7869 -87.9883 275° West 258 297 10,000 2,700 Climbing Chicago Center
07:55PM 41.7758 -88.0878 262° West 272 313 12,700 1,980 Climbing Chicago Center
07:56PM 41.7619 -88.1942 260° West 286 329 14,100 1,800 Climbing Chicago Center
07:57PM 41.7326 -88.5953 265° West  Level FlightAware Approximate
07:57PM 41.7489 -88.3147 262° West 321 369 16,500  Level Chicago Center
07:58PM 41.7358 -88.4369 262° West 334 384 18,800 2,400 Climbing Chicago Center
07:59PM 41.7403 -88.5872 272° West 339 390 21,500 2,340 Climbing Chicago Center
08:00PM 41.7442 -88.7175 272° West 351 404 23,700 1,980 Climbing Chicago Center
08:01PM 41.7467 -88.8500 271° West 358 412 25,700 1,560 Climbing Chicago Center
08:02PM 41.7467 -88.9911 270° West 377 434 27,000 1,500 Climbing Chicago Center
08:03PM 41.7414 -89.1383 267° West 394 453 28,900 1,740 Climbing Chicago Center
08:04PM 41.7367 -89.3175 268° West 403 464 30,600 1,320 Climbing Chicago Center
08:05PM 41.7306 -89.4717 267° West 415 478 31,700 1,260 Climbing Chicago Center
08:06PM 41.7256 -89.6403 268° West 426 490 33,300 1,620 Climbing Chicago Center
08:07PM 41.7197 -89.7958 267° West 422 486 35,100 1,440 Climbing Chicago Center
08:08PM 41.7133 -89.9511 267° West 419 482 36,300 1,020 Climbing Chicago Center
08:09PM 41.7072 -90.1064 267° West 419 482 37,300 780 Climbing Chicago Center
08:10PM 41.7000 -90.2606 266° West 417 480 38,000 300 Climbing Chicago Center
08:11PM 41.6922 -90.4181 266° West 423 487 38,000  Level Chicago Center
08:12PM 41.6844 -90.6008 267° West 413 475 38,000  Level Chicago Center
08:13PM 41.6769 -90.7469 266° West 415 478 38,000  Level Chicago Center
08:14PM 41.6706 -90.8992 267° West 413 475 38,000  Level Chicago Center
08:15PM 41.6625 -91.0528 266° West 416 479 38,000  Level Chicago Center
08:17PM 41.6522 -91.2375 266° West 417 480 38,000  Level Chicago Center
08:18PM 41.6447 -91.3906 266° West 416 479 38,000  Level Chicago Center
08:19PM 41.6369 -91.5450 266° West 418 481 38,000  Level Chicago Center
08:20PM 41.6286 -91.6994 266° West 418 481 38,000  Level Chicago Center
08:21PM 41.6194 -91.8542 266° West 419 482 38,000  Level Chicago Center
08:22PM 41.6083 -92.0392 265° West 419 482 38,000  Level Chicago Center
08:23PM 41.5994 -92.1917 266° West 416 479 38,000  Level Chicago Center
08:24PM 41.5900 -92.3464 265° West 419 482 38,000  Level Chicago Center
08:25PM 41.5808 -92.5000 265° West 419 482 38,000  Level Chicago Center
08:26PM 41.5708 -92.6539 265° West 420 483 38,000  Level Chicago Center
08:26PM 41.5653 -92.7389 265° West 415 478 38,000  Level Minneapolis Center
08:27PM 41.5533 -92.9239 265° West 419 482 38,000  Level Minneapolis Center
08:28PM 41.5425 -93.0767 265° West 420 483 38,000  Level Minneapolis Center
08:29PM 41.5325 -93.2317 265° West 421 484 38,000  Level Minneapolis Center
08:31PM 41.5197 -93.4156 265° West 420 483 38,000  Level Minneapolis Center
08:32PM 41.5092 -93.5656 265° West 416 479 38,000  Level Minneapolis Center
08:33PM 41.4961 -93.7494 265° West 417 480 38,000  Level Minneapolis Center
08:34PM 41.4853 -93.9033 265° West 421 484 38,000  Level Minneapolis Center
08:35PM 41.4731 -94.0567 264° West 421 484 38,000  Level Minneapolis Center
08:36PM 41.4594 -94.2256 264° West 423 487 38,000  Level Minneapolis Center
08:37PM 41.4456 -94.3825 263° West 427 491 38,000  Level Minneapolis Center
08:38PM 41.4328 -94.5383 264° West 425 489 38,000  Level Minneapolis Center
08:39PM 41.4208 -94.6956 264° West 427 491 38,000  Level Minneapolis Center
08:40PM 41.4078 -94.8517 264° West 425 489 38,000  Level Minneapolis Center
08:41PM 41.3933 -95.0381 264° West 421 484 38,000  Level Minneapolis Center
08:42PM 41.3803 -95.1936 264° West 421 484 38,000  Level Minneapolis Center
08:43PM 41.3658 -95.3500 263° West 425 489 38,000  Level Minneapolis Center
08:44PM 41.3486 -95.5386 263° West 427 491 38,000  Level Minneapolis Center
08:45PM 41.3328 -95.6978 263° West 425 489 38,000  Level Minneapolis Center
08:46PM 41.3186 -95.8547 263° West 427 491 38,000  Level Minneapolis Center
08:47PM 41.3050 -96.0111 263° West 426 490 38,000  Level Minneapolis Center
08:48PM 41.2878 -96.1983 263° West 426 490 38,000  Level Minneapolis Center
08:50PM 41.2742 -96.3550 263° West 426 490 38,000  Level Minneapolis Center
08:51PM 41.2567 -96.5225 262° West 427 491 38,000  Level Minneapolis Center
08:52PM 41.2408 -96.6783 262° West 426 490 38,000  Level Minneapolis Center
08:53PM 41.2253 -96.8344 263° West 427 491 38,000  Level Minneapolis Center
08:54PM 41.2097 -96.9897 262° West 425 489 38,000  Level Minneapolis Center
08:55PM 41.1931 -97.1439 262° West 424 488 38,000  Level Minneapolis Center
08:56PM 41.1764 -97.2994 262° West 425 489 38,000  Level Minneapolis Center
08:57PM 41.1575 -97.4756 262° West 426 490 38,000  Level Minneapolis Center
08:58PM 41.1411 -97.6306 262° West 425 489 38,000  Level Minneapolis Center
08:59PM 41.1236 -97.7864 262° West 426 490 38,000  Level Minneapolis Center
09:00PM 41.1072 -97.9425 262° West 427 491 38,000  Level Minneapolis Center
09:01PM 41.0894 -98.0983 261° West 427 491 38,000  Level Minneapolis Center
09:02PM 41.0686 -98.2847 262° West 426 490 38,000  Level Minneapolis Center
09:03PM 41.0506 -98.4411 261° West 427 491 38,000  Level Minneapolis Center
09:04PM 41.0325 -98.6056 262° West 428 493 38,000  Level Minneapolis Center
09:05PM 41.0133 -98.7639 261° West 434 499 38,000  Level Minneapolis Center
09:06PM 40.9908 -98.9556 261° West 438 504 38,000  Level Minneapolis Center
09:07PM 40.9758 -99.1131 263° West 434 499 38,000  Level Minneapolis Center
09:08PM 40.9578 -99.2725 262° West 428 493 38,000  Level Minneapolis Center
09:09PM 40.9389 -99.4311 261° West 432 497 38,000  Level Minneapolis Center
09:11PM 40.9150 -99.6272 261° West 448 516 38,000  Level Denver Center
09:12PM 40.8961 -99.7928 261° West 454 522 38,000  Level Denver Center
09:13PM 40.8764 -99.9486 261° West 451 519 38,000  Level Denver Center
09:14PM 40.8539 -100.1297 261° West 448 516 38,000  Level Denver Center
09:15PM 40.8303 -100.3114 260° West 450 518 38,000  Level Denver Center
09:16PM 40.8081 -100.4953 261° West 452 520 38,100  Climbing Denver Center
09:17PM 40.7831 -100.6728 260° West 454 522 38,000 -60 Descending Denver Center
09:18PM 40.7553 -100.8433 258° West 457 526 38,000  Level Denver Center
09:19PM 40.7300 -101.0008 258° West 454 522 38,000  Level Denver Center
09:20PM 40.6989 -101.1825 257° West 455 524 38,000  Level Denver Center
09:21PM 40.6719 -101.3367 257° West 452 520 38,000 -180 Level Denver Center
09:22PM 40.6403 -101.5181 257° West 454 522 37,700 -420 Descending Denver Center
09:23PM 40.6128 -101.6722 257° West 452 520 37,200 -480 Descending Denver Center
09:24PM 40.5856 -101.8272 257° West 455 524 36,800 -540 Descending Denver Center
09:25PM 40.5522 -102.0092 256° West 458 527 36,200 -540 Descending Denver Center
09:26PM 40.5222 -102.1647 256° West 458 527 35,800 -780 Descending Denver Center
09:27PM 40.4894 -102.3472 257° West 460 529 34,700 -1,020 Descending Denver Center
09:28PM 40.4592 -102.5039 256° West 462 532 33,700 -1,020 Descending Denver Center
09:29PM 40.4247 -102.6906 256° West 470 541 32,700 -1,200 Descending Denver Center
09:30PM 40.3944 -102.8475 256° West 465 535 31,300 -2,220 Descending Denver Center
09:31PM 40.3611 -103.0294 257° West 460 529 28,200 -2,760 Descending Denver Center
09:32PM 40.3317 -103.1775 255° West 442 509 25,700 -2,400 Descending Denver Center
09:33PM 40.3044 -103.3228 256° West 430 495 23,300 -2,580 Descending Denver Center
09:34PM 40.2708 -103.4908 255° West 412 474 20,500 -1,860 Descending Denver Center
09:35PM 40.2447 -103.6208 255° West 386 444 19,500 -1,260 Descending Denver Center
09:36PM 40.2200 -103.7481 256° West 355 409 17,900 -1,200 Descending Denver Center
09:37PM 40.2008 -103.8722 259° West 315 362 17,100 -1,260 Descending Denver Center
09:39PM 40.2122 -103.9828 278° West 309 356 15,400 -1,200 Descending Denver Center
09:40PM 40.2058 -104.0775 265° West 310 357 14,700 -840 Descending Denver Center
09:41PM 40.1958 -104.2139 265° West 307 353 13,700 -900 Descending Denver Center
09:42PM 40.1881 -104.3231 265° West 304 350 12,900 -960 Descending Denver Center
09:43PM 40.1806 -104.4389 265° West 299 344 11,800 -1,320 Descending Denver Center
09:44PM 40.1619 -104.5417 257° West 297 342 10,200 -1,680 Descending Denver Center
09:45PM 40.1242 -104.6408 244° Southwest 288 331 8,400 -1,020 Descending Denver Center
09:46PM 40.0606 -104.6869 209° Southwest 261 300 8,100 -540 Descending Denver Center
09:47PM 40.0011 -104.6953 186° South 218 251 7,300 -960 Descending Denver Center
09:48PM 39.9419 -104.6956 180° South 201 231 6,200 -840 Descending Denver Center
09:49PM 39.9047 -104.6961 181° South 140 161 5,600 -480 Descending Denver Center
09:50PM 39.8808 -104.6964 181° South 132 152 5,300 -300 Descending Denver Center
09:52PM 39.8617 -104.6732 190° South  Level Estimated
09:59PM 39.8617 -104.6732 190° South  Level Estimated
10:00PM 39.8617 -104.6732 190° South  Level Estimated